createdAt,value
2022-08-26T00:01:34.648Z,15.03
2022-08-26T00:04:25.329Z,14.97
2022-08-26T00:07:15.062Z,14.70
2022-08-26T00:10:07.482Z,15.40
2022-08-26T00:12:56.946Z,14.20
2022-08-26T00:16:51.481Z,14.00
2022-08-26T00:19:49.836Z,13.83
2022-08-26T00:22:42.355Z,14.63
2022-08-26T00:25:33.293Z,14.73
2022-08-26T00:28:23.565Z,15.50
2022-08-26T00:31:13.706Z,14.30
2022-08-26T00:34:03.193Z,14.70
2022-08-26T00:36:52.934Z,14.30
2022-08-26T00:39:42.386Z,15.93
2022-08-26T00:42:33.357Z,15.37
2022-08-26T00:45:23.122Z,15.20
2022-08-26T00:48:15.833Z,14.70
2022-08-26T00:51:12.242Z,14.60
2022-08-26T00:54:06.929Z,14.43
2022-08-26T00:57:04.927Z,14.63
2022-08-26T01:00:02.873Z,14.37
2022-08-26T01:02:52.581Z,14.83
2022-08-26T01:05:42.881Z,14.67
2022-08-26T01:08:32.488Z,14.47
2022-08-26T01:11:22.037Z,14.40
2022-08-26T01:14:13.675Z,14.50
2022-08-26T01:17:07.417Z,15.20
2022-08-26T01:20:05.731Z,14.40
2022-08-26T01:23:01.490Z,14.70
2022-08-26T01:25:58.451Z,14.93
2022-08-26T01:28:51.715Z,14.50
2022-08-26T01:31:46.593Z,14.13
2022-08-26T01:34:38.772Z,14.90
2022-08-26T01:37:34.901Z,14.30
2022-08-26T01:40:32.793Z,14.77
2022-08-26T01:43:27.161Z,13.97
2022-08-26T01:46:18.429Z,13.30
2022-08-26T01:49:09.509Z,13.37
2022-08-26T01:51:59.870Z,13.57
2022-08-26T01:54:50.532Z,14.00
2022-08-26T01:57:44.174Z,14.30
2022-08-26T02:00:35.367Z,14.10
2022-08-26T02:03:26.921Z,14.20
2022-08-26T02:06:16.352Z,14.67
2022-08-26T02:09:07.204Z,14.27
2022-08-26T02:11:56.925Z,13.80
2022-08-26T02:14:53.734Z,13.73
2022-08-26T02:17:46.758Z,14.20
2022-08-26T02:20:37.406Z,13.90
2022-08-26T02:23:27.191Z,13.63
2022-08-26T02:26:20.553Z,14.20
2022-08-26T02:29:19.679Z,13.90
2022-08-26T02:32:13.434Z,13.50
2022-08-26T02:35:09.587Z,13.83
2022-08-26T02:38:00.330Z,13.87
2022-08-26T02:40:50.113Z,14.10
2022-08-26T02:43:40.558Z,13.97
2022-08-26T02:46:31.438Z,14.00
2022-08-26T02:49:24.261Z,13.80
2022-08-26T02:52:14.342Z,13.67
2022-08-26T02:55:03.841Z,14.63
2022-08-26T02:57:53.660Z,13.70
2022-08-26T03:00:53.163Z,14.27
2022-08-26T03:03:43.104Z,14.43
2022-08-26T03:06:34.115Z,14.00
2022-08-26T03:09:23.653Z,14.17
2022-08-26T03:12:13.471Z,14.30
2022-08-26T03:15:16.012Z,13.93
2022-08-26T03:18:07.621Z,14.60
2022-08-26T03:20:57.055Z,13.67
2022-08-26T03:23:49.665Z,14.47
2022-08-26T03:26:39.473Z,14.57
2022-08-26T03:29:58.938Z,15.07
2022-08-26T03:32:48.293Z,13.93
2022-08-26T03:35:38.128Z,14.43
2022-08-26T03:38:28.888Z,13.90
2022-08-26T03:41:21.390Z,14.67
2022-08-26T03:44:10.913Z,14.57
2022-08-26T03:47:00.426Z,14.80
2022-08-26T03:49:49.948Z,14.60
2022-08-26T03:52:43.849Z,14.23
2022-08-26T03:55:34.620Z,14.63
2022-08-26T03:58:25.525Z,13.83
2022-08-26T04:01:16.460Z,14.00
2022-08-26T04:04:06.450Z,13.93
2022-08-26T04:06:59.466Z,15.30
2022-08-26T04:09:48.821Z,13.30
2022-08-26T04:12:39.708Z,14.37
2022-08-26T04:15:30.775Z,14.13
2022-08-26T04:18:21.418Z,14.57
2022-08-26T04:21:12.151Z,13.90
2022-08-26T04:24:08.365Z,13.20
2022-08-26T04:27:03.586Z,14.80
2022-08-26T04:29:55.342Z,13.40
2022-08-26T04:32:46.473Z,13.23
2022-08-26T04:35:37.136Z,13.90
2022-08-26T04:38:27.212Z,13.67
2022-08-26T04:41:16.973Z,13.60
2022-08-26T04:44:07.831Z,13.57
2022-08-26T04:46:58.551Z,13.37
2022-08-26T04:49:49.618Z,14.20
2022-08-26T04:52:39.936Z,14.00
2022-08-26T04:55:38.537Z,14.67
2022-08-26T04:58:29.305Z,14.40
2022-08-26T05:01:18.998Z,13.70
2022-08-26T05:04:08.489Z,13.20
2022-08-26T05:06:59.856Z,13.20
2022-08-26T05:09:52.866Z,13.37
2022-08-26T05:12:42.324Z,14.10
2022-08-26T05:15:33.784Z,13.20
2022-08-26T05:18:25.866Z,13.70
2022-08-26T05:21:21.273Z,13.73
2022-08-26T05:24:12.871Z,13.40
2022-08-26T05:27:03.233Z,13.10
2022-08-26T05:30:01.897Z,13.33
2022-08-26T05:32:55.207Z,13.20
2022-08-26T05:35:46.418Z,15.70
2022-08-26T05:38:36.144Z,15.30
2022-08-26T05:41:34.181Z,13.90
2022-08-26T05:44:25.717Z,13.17
2022-08-26T05:47:15.055Z,13.53
2022-08-26T05:50:05.809Z,12.67
2022-08-26T05:52:55.231Z,12.93
2022-08-26T05:55:46.366Z,12.60
2022-08-26T05:58:39.350Z,12.50
2022-08-26T06:01:30.779Z,12.43
2022-08-26T06:04:27.033Z,12.40
2022-08-26T06:07:38.874Z,12.50
2022-08-26T06:10:32.358Z,11.90
2022-08-26T06:13:27.739Z,12.60
2022-08-26T06:16:24.999Z,13.40
2022-08-26T06:19:17.285Z,14.03
2022-08-26T06:22:26.846Z,12.70
2022-08-26T06:25:34.105Z,13.57
2022-08-26T06:28:24.625Z,12.67
2022-08-26T06:31:15.726Z,12.37
2022-08-26T06:34:10.753Z,11.73
2022-08-26T06:37:03.519Z,11.53
2022-08-26T06:39:53.291Z,11.97
2022-08-26T06:42:42.808Z,12.43
2022-08-26T06:45:33.986Z,11.45
2022-08-26T06:48:23.523Z,11.68
2022-08-26T06:51:19.155Z,11.43
2022-08-26T06:54:11.822Z,12.07
2022-08-26T06:57:01.771Z,10.75
2022-08-26T06:59:51.351Z,11.27
2022-08-26T07:02:41.098Z,11.85
2022-08-26T07:05:36.905Z,11.27
2022-08-26T07:08:27.673Z,11.38
2022-08-26T07:11:19.102Z,10.23
2022-08-26T07:14:09.227Z,10.60
2022-08-26T07:17:01.463Z,10.48
2022-08-26T07:19:51.136Z,10.48
2022-08-26T07:22:42.486Z,10.43
2022-08-26T07:25:33.289Z,10.55
2022-08-26T07:28:23.006Z,10.32
2022-08-26T07:31:16.130Z,10.07
2022-08-26T07:34:07.460Z,9.95
2022-08-26T07:36:58.814Z,9.95
2022-08-26T07:39:48.873Z,10.10
2022-08-26T07:42:40.051Z,9.75
2022-08-26T07:45:30.047Z,10.18
2022-08-26T07:48:19.902Z,9.90
2022-08-26T07:51:11.116Z,10.07
2022-08-26T07:54:00.595Z,10.10
2022-08-26T07:56:50.299Z,9.60
2022-08-26T07:59:42.622Z,10.15
2022-08-26T08:02:32.203Z,10.98
2022-08-26T08:05:33.369Z,10.95
2022-08-26T08:08:27.550Z,9.80
2022-08-26T08:11:20.477Z,10.00
2022-08-26T08:14:11.801Z,10.73
2022-08-26T08:17:02.953Z,10.20
2022-08-26T08:19:52.580Z,9.63
2022-08-26T08:22:43.029Z,10.00
2022-08-26T08:25:34.521Z,9.93
2022-08-26T08:28:24.105Z,10.10
2022-08-26T08:31:38.745Z,9.52
2022-08-26T08:34:32.890Z,10.07
2022-08-26T08:37:23.079Z,9.55
2022-08-26T08:40:18.281Z,10.35
2022-08-26T08:43:11.556Z,9.70
2022-08-26T08:46:07.205Z,9.80
2022-08-26T08:48:59.951Z,9.60
2022-08-26T08:51:57.354Z,9.10
2022-08-26T08:54:47.614Z,10.50
2022-08-26T08:58:02.122Z,9.88
2022-08-26T09:01:04.754Z,9.63
2022-08-26T09:04:10.854Z,10.20
2022-08-26T09:07:04.704Z,10.37
2022-08-26T09:09:59.944Z,10.73
2022-08-26T09:12:52.155Z,10.13
2022-08-26T09:15:58.623Z,11.30
2022-08-26T09:19:14.363Z,10.83
2022-08-26T09:22:09.297Z,10.80
2022-08-26T09:24:59.555Z,10.90
2022-08-26T09:27:52.375Z,11.20
2022-08-26T09:30:41.784Z,11.27
2022-08-26T09:33:33.639Z,10.73
2022-08-26T09:36:41.039Z,11.00
2022-08-26T09:39:37.639Z,10.90
2022-08-26T09:42:27.396Z,11.30
2022-08-26T09:45:17.114Z,11.30
2022-08-26T09:48:08.171Z,12.10
2022-08-26T09:51:01.450Z,12.03
2022-08-26T09:53:54.882Z,11.77
2022-08-26T09:56:46.475Z,11.70
2022-08-26T09:59:36.089Z,12.10
2022-08-26T10:02:41.648Z,11.57
2022-08-26T10:05:44.565Z,11.77
2022-08-26T10:08:37.855Z,11.87
2022-08-26T10:11:38.757Z,11.90
2022-08-26T10:14:34.475Z,11.83
2022-08-26T10:17:30.929Z,11.80
2022-08-26T10:20:25.380Z,10.47
2022-08-26T10:23:20.655Z,11.23
2022-08-26T10:26:17.946Z,10.63
2022-08-26T10:29:15.377Z,10.70
2022-08-26T10:32:14.071Z,10.20
2022-08-26T10:35:03.933Z,10.10
2022-08-26T10:38:04.021Z,10.20
2022-08-26T10:41:00.114Z,10.30
2022-08-26T10:43:54.398Z,9.60
2022-08-26T10:46:52.072Z,9.43
2022-08-26T10:49:45.393Z,9.60
2022-08-26T10:52:56.441Z,9.70
2022-08-26T10:55:58.486Z,9.40
2022-08-26T10:59:03.290Z,9.47
2022-08-26T11:02:04.192Z,9.50
2022-08-26T11:04:59.054Z,9.43
2022-08-26T11:07:54.451Z,10.00
2022-08-26T11:11:05.469Z,9.30
2022-08-26T11:14:05.528Z,8.90
2022-08-26T11:16:56.981Z,8.50
2022-08-26T11:20:09.070Z,8.87
2022-08-26T11:23:50.701Z,8.87
2022-08-26T11:26:55.908Z,8.80
2022-08-26T11:30:03.322Z,8.97
2022-08-26T11:32:57.264Z,9.00
2022-08-26T11:35:51.234Z,9.37
2022-08-26T11:38:44.109Z,9.50
2022-08-26T11:41:35.546Z,10.03
2022-08-26T11:44:30.997Z,9.80
2022-08-26T11:47:30.425Z,9.80
2022-08-26T11:50:26.100Z,9.80
2022-08-26T11:53:20.074Z,9.33
2022-08-26T11:56:33.149Z,9.90
2022-08-26T12:02:28.107Z,9.30
2022-08-26T12:05:25.470Z,9.53
2022-08-26T12:08:25.225Z,9.63
2022-08-26T12:11:24.879Z,9.43
2022-08-26T12:14:22.057Z,9.60
2022-08-26T12:17:14.339Z,9.60
2022-08-26T12:20:06.356Z,9.40
2022-08-26T12:22:56.646Z,9.40
2022-08-26T12:25:47.821Z,9.70
2022-08-26T12:28:45.223Z,9.20
2022-08-26T12:31:38.054Z,9.10
2022-08-26T12:34:28.160Z,9.87
2022-08-26T12:37:19.205Z,9.47
2022-08-26T12:40:34.301Z,9.80
2022-08-26T12:43:42.123Z,9.60
2022-08-26T12:46:31.909Z,9.73
2022-08-26T12:49:21.366Z,9.83
2022-08-26T12:52:30.106Z,9.90
2022-08-26T12:55:24.929Z,10.13
2022-08-26T12:58:24.857Z,10.00
2022-08-26T13:01:24.274Z,10.20
2022-08-26T13:04:38.129Z,10.20
2022-08-26T13:07:28.367Z,10.33
2022-08-26T13:10:37.679Z,10.33
2022-08-26T13:13:27.151Z,10.00
2022-08-26T13:16:16.741Z,16.17
2022-08-26T13:19:10.201Z,13.03
2022-08-26T13:22:01.633Z,11.73
2022-08-26T13:24:53.564Z,11.27
2022-08-26T13:27:43.237Z,11.13
2022-08-26T13:30:32.707Z,10.37
2022-08-26T13:33:22.855Z,10.97
2022-08-26T13:36:13.959Z,10.40
2022-08-26T13:39:04.131Z,10.80
2022-08-26T13:41:54.487Z,10.80
2022-08-26T13:44:45.189Z,10.90
2022-08-26T13:47:34.737Z,10.80
2022-08-26T13:50:24.276Z,10.53
2022-08-26T13:53:15.676Z,10.60
2022-08-26T13:56:10.861Z,10.40
2022-08-26T13:59:02.118Z,10.63
2022-08-26T14:01:51.929Z,15.20
2022-08-26T14:04:42.074Z,16.83
2022-08-26T14:07:31.545Z,14.40
2022-08-26T14:10:22.459Z,12.90
2022-08-26T14:13:11.886Z,11.50
2022-08-26T14:16:02.199Z,11.30
2022-08-26T14:18:52.328Z,11.20
2022-08-26T14:21:41.814Z,11.33
2022-08-26T14:24:31.750Z,11.60
2022-08-26T14:27:22.736Z,11.30
2022-08-26T14:30:13.013Z,18.60
2022-08-26T14:33:02.543Z,15.63
2022-08-26T14:35:52.066Z,13.07
2022-08-26T14:38:41.984Z,14.30
2022-08-26T14:41:32.567Z,13.80
2022-08-26T14:44:27.247Z,12.37
2022-08-26T14:47:16.736Z,12.30
2022-08-26T14:50:07.502Z,10.77
2022-08-26T14:53:14.615Z,11.00
2022-08-26T14:56:04.594Z,10.60
2022-08-26T14:58:55.358Z,10.60
2022-08-26T15:01:46.801Z,11.20
2022-08-26T15:04:36.644Z,10.43
2022-08-26T15:07:26.091Z,10.43
2022-08-26T15:10:18.029Z,10.97
2022-08-26T15:13:07.694Z,10.40
2022-08-26T15:15:57.404Z,10.90
2022-08-26T15:18:48.377Z,10.70
2022-08-26T15:21:38.615Z,10.63
2022-08-26T15:24:29.738Z,10.23
2022-08-26T15:27:19.633Z,10.17
2022-08-26T15:30:13.166Z,10.60
2022-08-26T15:33:02.661Z,10.37
2022-08-26T15:35:53.988Z,10.20
2022-08-26T15:38:43.693Z,10.00
2022-08-26T15:41:34.972Z,10.40
2022-08-26T15:44:26.108Z,10.50
2022-08-26T15:47:15.726Z,9.83
2022-08-26T15:50:05.800Z,10.37
2022-08-26T15:52:56.753Z,10.50
2022-08-26T15:55:46.385Z,10.37
2022-08-26T15:58:36.298Z,10.33
2022-08-26T16:01:27.789Z,10.37
2022-08-26T16:04:18.588Z,10.40
2022-08-26T16:07:08.155Z,10.27
2022-08-26T16:09:58.997Z,10.53
2022-08-26T16:12:48.495Z,10.10
2022-08-26T16:15:38.826Z,10.30
2022-08-26T16:18:28.835Z,10.23
2022-08-26T16:21:22.940Z,10.37
2022-08-26T16:24:13.087Z,10.80
2022-08-26T16:27:04.005Z,10.30
2022-08-26T16:29:53.506Z,10.23
2022-08-26T16:32:43.046Z,10.63
2022-08-26T16:35:32.631Z,10.80
2022-08-26T16:38:22.175Z,11.13
2022-08-26T16:41:12.791Z,10.73
2022-08-26T16:44:07.715Z,11.40
2022-08-26T16:46:58.704Z,10.73
2022-08-26T16:49:48.630Z,10.90
2022-08-26T16:52:38.449Z,10.83
2022-08-26T16:55:28.336Z,10.80
2022-08-26T16:58:18.217Z,10.70
2022-08-26T17:01:10.053Z,10.30
2022-08-26T17:03:59.567Z,10.40
2022-08-26T17:06:49.345Z,10.00
2022-08-26T17:09:40.257Z,10.20
2022-08-26T17:12:31.485Z,10.03
2022-08-26T17:15:22.205Z,10.23
2022-08-26T17:18:13.220Z,10.50
2022-08-26T17:21:04.621Z,10.43
2022-08-26T17:23:54.230Z,10.67
2022-08-26T17:26:44.418Z,10.77
2022-08-26T17:29:37.993Z,10.57
2022-08-26T17:32:27.411Z,10.50
2022-08-26T17:35:18.567Z,10.60
2022-08-26T17:38:08.329Z,11.10
2022-08-26T17:40:58.791Z,10.53
2022-08-26T17:43:48.448Z,11.80
2022-08-26T17:46:38.538Z,10.90
2022-08-26T17:49:28.736Z,10.67
2022-08-26T17:52:19.859Z,10.53
2022-08-26T17:55:12.201Z,11.07
2022-08-26T17:58:03.910Z,10.80
2022-08-26T18:00:55.674Z,10.60
2022-08-26T18:03:45.339Z,11.20
2022-08-26T18:06:34.980Z,10.90
2022-08-26T18:09:25.780Z,11.00
2022-08-26T18:12:15.746Z,11.00
2022-08-26T18:15:06.333Z,10.90
2022-08-26T18:17:55.840Z,11.00
2022-08-26T18:20:46.827Z,10.47
2022-08-26T18:23:41.938Z,10.90
2022-08-26T18:26:35.639Z,11.10
2022-08-26T18:29:25.485Z,10.83
2022-08-26T18:32:14.902Z,11.00
2022-08-26T18:35:05.243Z,10.60
2022-08-26T18:37:54.610Z,11.53
2022-08-26T18:40:46.429Z,11.33
2022-08-26T18:43:37.311Z,11.07
2022-08-26T18:46:28.708Z,10.93
2022-08-26T18:49:21.643Z,11.20
2022-08-26T18:52:11.084Z,11.70
2022-08-26T18:55:00.979Z,10.80
2022-08-26T18:57:50.780Z,11.23
2022-08-26T19:00:41.557Z,13.00
2022-08-26T19:03:31.041Z,12.63
2022-08-26T19:06:24.244Z,12.57
2022-08-26T19:09:14.192Z,12.80
2022-08-26T19:12:05.990Z,12.37
2022-08-26T19:14:56.464Z,11.90
2022-08-26T19:17:48.443Z,12.07
2022-08-26T19:20:43.492Z,11.40
2022-08-26T19:23:35.661Z,11.60
2022-08-26T19:26:26.425Z,12.10
2022-08-26T19:32:10.866Z,11.47
2022-08-26T19:35:01.682Z,12.10
2022-08-26T19:37:51.130Z,12.23
2022-08-26T19:40:41.520Z,12.23
2022-08-26T19:43:31.010Z,12.47
2022-08-26T19:46:24.164Z,12.03
2022-08-26T19:49:13.738Z,12.03
2022-08-26T19:52:06.031Z,12.63
2022-08-26T19:54:55.471Z,11.80
2022-08-26T19:57:45.480Z,12.27
2022-08-26T20:00:36.701Z,11.20
2022-08-26T20:03:27.425Z,11.40
2022-08-26T20:06:18.429Z,11.77
2022-08-26T20:09:09.296Z,25.00
2022-08-26T20:11:58.910Z,23.40
2022-08-26T20:14:48.484Z,18.90
2022-08-26T20:17:38.446Z,17.37
2022-08-26T20:20:45.715Z,13.97
2022-08-26T20:23:36.488Z,25.87
2022-08-26T20:26:28.737Z,23.20
2022-08-26T20:29:19.788Z,18.20
2022-08-26T20:32:10.046Z,16.33
2022-08-26T20:35:00.439Z,13.57
2022-08-26T20:37:49.922Z,13.50
2022-08-26T20:40:39.384Z,12.83
2022-08-26T20:43:30.226Z,11.50
2022-08-26T20:46:23.022Z,26.70
2022-08-26T20:49:14.883Z,27.53
2022-08-26T20:52:05.506Z,20.70
2022-08-26T20:54:55.000Z,17.90
2022-08-26T20:57:44.468Z,20.87
2022-08-26T21:00:35.541Z,15.00
2022-08-26T21:03:25.076Z,15.47
2022-08-26T21:06:14.853Z,14.80
2022-08-26T21:09:06.104Z,11.90
2022-08-26T21:11:55.989Z,12.63
2022-08-26T21:14:49.411Z,12.43
2022-08-26T21:17:40.586Z,11.80
2022-08-26T21:20:32.604Z,11.87
2022-08-26T21:23:25.373Z,11.77
2022-08-26T21:26:18.165Z,12.10
2022-08-26T21:29:09.915Z,11.93
2022-08-26T21:31:59.586Z,11.10
2022-08-26T21:34:50.405Z,10.20
2022-08-26T21:37:39.941Z,9.90
2022-08-26T21:40:33.581Z,9.60
2022-08-26T21:43:35.439Z,9.30
2022-08-26T21:46:26.388Z,9.60
2022-08-26T21:49:17.443Z,9.60
2022-08-26T21:52:08.313Z,9.10
2022-08-26T21:54:59.749Z,9.50
2022-08-26T21:57:49.712Z,9.80
2022-08-26T22:00:39.468Z,9.40
2022-08-26T22:03:29.709Z,9.50
2022-08-26T22:06:28.805Z,9.90
2022-08-26T22:09:23.496Z,9.77
2022-08-26T22:12:18.375Z,9.60
2022-08-26T22:15:10.133Z,9.33
2022-08-26T22:17:59.631Z,9.50
2022-08-26T22:20:49.328Z,9.50
2022-08-26T22:23:40.237Z,9.40
2022-08-26T22:26:34.082Z,9.03
2022-08-26T22:29:25.153Z,9.20
2022-08-26T22:32:15.073Z,8.77
2022-08-26T22:35:28.457Z,9.40
2022-08-26T22:38:15.489Z,9.63
2022-08-26T22:41:08.307Z,9.50
2022-08-26T22:43:59.397Z,9.67
2022-08-26T22:46:50.831Z,9.50
2022-08-26T22:49:40.320Z,9.73
2022-08-26T22:52:30.310Z,9.57
2022-08-26T22:55:19.910Z,10.07
2022-08-26T22:58:09.477Z,9.60
2022-08-26T23:01:01.070Z,10.00
2022-08-26T23:03:50.807Z,10.10
2022-08-26T23:06:43.278Z,10.23
2022-08-26T23:09:37.341Z,10.20
2022-08-26T23:12:27.679Z,10.23
2022-08-26T23:15:17.199Z,10.23
2022-08-26T23:18:10.521Z,10.43
2022-08-26T23:21:00.291Z,10.17
2022-08-26T23:23:50.460Z,10.67
2022-08-26T23:26:41.713Z,10.33
2022-08-26T23:29:31.376Z,10.57
2022-08-26T23:32:21.034Z,10.33
2022-08-26T23:35:14.269Z,10.13
2022-08-26T23:38:04.026Z,10.50
2022-08-26T23:40:54.385Z,10.47
2022-08-26T23:43:45.111Z,10.10
2022-08-26T23:46:36.466Z,10.03
2022-08-26T23:49:27.157Z,9.77
2022-08-26T23:52:35.631Z,9.87
2022-08-26T23:55:25.165Z,9.90
2022-08-26T23:58:15.262Z,9.90
